Time;durP1;ratioP1;P1;durP2;ratioP2;P2;SDS_P1;SDS_P2;PMS_P1;PMS_P2;Temp;Humidity;BMP_temperature;BMP_pressure;BME280_temperature;BME280_humidity;BME280_pressure;Samples;Min_cycle;Max_cycle;Signal;HPM_P1;HPM_P2
2023/12/23 00:00:28;;;;;;;87.32;37.72;;;;;;;;;;4915552;29;20040;-43
2023/12/23 00:02:55;;;;;;;85.70;36.33;;;;;;;;;;4916956;29;20052;-53
2023/12/23 00:05:22;;;;;;;85.95;34.88;;;;;;;;;;4912850;29;20025;-52
2023/12/23 00:07:49;;;;;;;76.57;32.80;;;;;;;;;;4911862;29;20390;-54
2023/12/23 00:10:16;;;;;;;76.57;32.75;;;;;;;;;;4916903;29;20111;-52
2023/12/23 00:12:43;;;;;;;72.13;32.08;;;;;;;;;;4917719;29;20121;-51
2023/12/23 00:15:10;;;;;;;71.28;30.95;;;;;;;;;;4917767;29;20398;-54
2023/12/23 00:17:37;;;;;;;66.75;30.83;;;;;;;;;;4900577;29;20056;-53
2023/12/23 00:20:04;;;;;;;72.85;31.90;;;;;;;;;;4910960;29;20024;-55
2023/12/23 00:22:31;;;;;;;64.82;29.73;;;;;;;;;;4917325;29;20146;-48
2023/12/23 00:24:58;;;;;;;68.82;30.80;;;;;;;;;;4908221;29;20048;-53
2023/12/23 00:27:25;;;;;;;60.28;26.98;;;;;;;;;;4917627;29;20039;-50
2023/12/23 00:29:52;;;;;;;58.63;27.70;;;;;;;;;;4917699;29;20084;-53
2023/12/23 00:32:19;;;;;;;58.85;26.40;;;;;;;;;;4916823;29;20109;-46
2023/12/23 00:34:46;;;;;;;60.00;27.08;;;;;;;;;;4917679;29;20032;-48
2023/12/23 00:37:13;;;;;;;52.05;24.17;;;;;;;;;;4917401;29;20071;-46
2023/12/23 00:39:40;;;;;;;49.97;24.40;;;;;;;;;;4916942;29;20036;-46
2023/12/23 00:42:07;;;;;;;50.28;23.50;;;;;;;;;;4917366;29;20044;-47
2023/12/23 00:44:34;;;;;;;47.33;23.52;;;;;;;;;;4916734;29;20526;-46
2023/12/23 00:47:01;;;;;;;44.40;22.10;;;;;;;;;;4917373;29;20071;-46
2023/12/23 00:49:28;;;;;;;43.30;22.92;;;;;;;;;;4916645;29;20554;-45
2023/12/23 00:51:56;;;;;;;43.95;20.25;;;;;;;;;;4915986;29;20119;-47
2023/12/23 00:54:23;;;;;;;42.97;19.23;;;;;;;;;;4915977;29;20044;-47
2023/12/23 00:56:50;;;;;;;41.22;19.73;;;;;;;;;;4916431;29;20549;-46
2023/12/23 00:59:17;;;;;;;42.58;20.38;;;;;;;;;;4899321;29;20135;-49
2023/12/23 01:01:44;;;;;;;35.00;18.33;;;;;;;;;;4899431;29;20036;-47
2023/12/23 01:04:11;;;;;;;37.83;18.83;;;;;;;;;;4915866;29;20151;-46
2023/12/23 01:06:38;;;;;;;37.63;18.65;;;;;;;;;;4915789;29;20036;-48
2023/12/23 01:09:06;;;;;;;38.03;18.42;;;;;;;;;;4899101;29;20569;-50
2023/12/23 01:11:33;;;;;;;35.22;17.20;;;;;;;;;;4916341;29;20115;-47
2023/12/23 01:13:59;;;;;;;34.03;17.25;;;;;;;;;;4916562;29;20466;-44
2023/12/23 01:16:27;;;;;;;34.05;16.95;;;;;;;;;;4916850;29;20035;-48
2023/12/23 01:18:54;;;;;;;37.60;18.40;;;;;;;;;;4916796;29;20028;-58
2023/12/23 01:21:21;;;;;;;33.38;16.05;;;;;;;;;;4915455;29;20127;-53
2023/12/23 01:23:48;;;;;;;36.28;16.58;;;;;;;;;;4916092;29;20040;-51
2023/12/23 01:26:15;;;;;;;32.50;17.40;;;;;;;;;;4916350;29;20102;-46
2023/12/23 01:28:42;;;;;;;32.22;16.70;;;;;;;;;;4915947;29;20446;-46
2023/12/23 01:31:09;;;;;;;34.40;17.50;;;;;;;;;;4916061;29;20058;-47
2023/12/23 01:33:36;;;;;;;31.65;15.90;;;;;;;;;;4915918;29;20118;-44
2023/12/23 01:36:05;;;;;;;28.38;15.05;;;;;;;;;;4916057;29;20035;-45
2023/12/23 01:38:33;;;;;;;28.75;14.27;;;;;;;;;;4915682;29;20084;-49
2023/12/23 01:41:00;;;;;;;22.00;13.52;;;;;;;;;;4915097;29;20044;-42
2023/12/23 01:43:28;;;;;;;22.50;12.80;;;;;;;;;;4915584;29;20106;-53
2023/12/23 01:45:59;;;;;;;23.77;12.27;;;;;;;;;;4899140;29;20036;-48
2023/12/23 01:48:26;;;;;;;24.50;12.93;;;;;;;;;;4911590;29;20051;-48
2023/12/23 01:50:54;;;;;;;22.33;11.90;;;;;;;;;;4914972;29;20040;-46
2023/12/23 01:53:21;;;;;;;20.30;11.00;;;;;;;;;;4914313;29;20039;-46
2023/12/23 01:55:49;;;;;;;19.73;9.95;;;;;;;;;;4916183;29;20107;-46
2023/12/23 01:58:17;;;;;;;20.52;10.93;;;;;;;;;;4914965;29;20164;-52
2023/12/23 02:00:44;;;;;;;21.95;11.95;;;;;;;;;;4915138;29;20553;-46
2023/12/23 02:03:12;;;;;;;17.38;9.80;;;;;;;;;;4915802;29;20084;-48
2023/12/23 02:05:39;;;;;;;20.70;10.10;;;;;;;;;;4915708;29;20028;-46
2023/12/23 02:08:06;;;;;;;21.20;9.27;;;;;;;;;;4915535;29;20052;-47
2023/12/23 02:10:34;;;;;;;20.67;9.75;;;;;;;;;;4915859;29;20067;-49
2023/12/23 02:13:04;;;;;;;17.45;8.27;;;;;;;;;;4915573;29;20710;-48
2023/12/23 02:15:31;;;;;;;15.25;7.55;;;;;;;;;;4915738;29;20068;-45
2023/12/23 02:18:01;;;;;;;10.45;6.35;;;;;;;;;;4927574;29;20043;-45
2023/12/23 02:20:28;;;;;;;19.38;9.30;;;;;;;;;;4934832;29;20028;-42
2023/12/23 02:22:55;;;;;;;10.52;6.20;;;;;;;;;;4934922;29;20079;-43
2023/12/23 02:25:23;;;;;;;11.90;7.07;;;;;;;;;;4917541;29;20054;-43
2023/12/23 02:27:59;;;;;;;15.20;6.68;;;;;;;;;;4934591;29;20035;-44
2023/12/23 02:30:28;;;;;;;9.70;5.38;;;;;;;;;;4917688;29;20581;-43
2023/12/23 02:32:55;;;;;;;11.07;5.28;;;;;;;;;;4934821;29;20028;-47
2023/12/23 02:35:25;;;;;;;9.63;4.28;;;;;;;;;;4934552;29;20083;-46
2023/12/23 02:37:52;;;;;;;8.30;3.65;;;;;;;;;;4924991;29;20036;-46
2023/12/23 02:40:19;;;;;;;5.22;3.00;;;;;;;;;;4915806;29;20107;-50
2023/12/23 02:42:46;;;;;;;9.13;3.20;;;;;;;;;;4915465;29;20048;-49
2023/12/23 02:45:13;;;;;;;3.92;2.15;;;;;;;;;;4914862;29;20035;-51
2023/12/23 02:47:40;;;;;;;5.72;2.50;;;;;;;;;;4915287;29;20095;-45
2023/12/23 02:50:07;;;;;;;3.60;2.05;;;;;;;;;;4915538;29;20558;-44
2023/12/23 02:52:34;;;;;;;4.25;2.05;;;;;;;;;;4915424;29;20065;-45
2023/12/23 02:55:01;;;;;;;4.43;1.80;;;;;;;;;;4915211;29;20028;-43
2023/12/23 02:57:28;;;;;;;4.25;2.13;;;;;;;;;;4913748;29;20039;-49
2023/12/23 02:59:55;;;;;;;4.53;1.90;;;;;;;;;;4915464;29;20032;-49
2023/12/23 03:02:22;;;;;;;6.13;1.90;;;;;;;;;;4915319;29;20809;-49
2023/12/23 03:04:49;;;;;;;5.30;2.30;;;;;;;;;;4913945;29;20092;-45
2023/12/23 03:07:16;;;;;;;4.80;2.05;;;;;;;;;;4914462;29;20055;-42
2023/12/23 03:09:43;;;;;;;5.30;2.10;;;;;;;;;;4912284;29;20024;-45
2023/12/23 03:12:10;;;;;;;4.53;2.00;;;;;;;;;;4894238;29;20051;-43
2023/12/23 03:14:37;;;;;;;5.70;2.67;;;;;;;;;;4911355;29;20080;-47
2023/12/23 03:17:04;;;;;;;5.43;2.53;;;;;;;;;;4904379;29;20029;-42
2023/12/23 03:19:31;;;;;;;4.50;2.42;;;;;;;;;;4904603;29;20044;-44
2023/12/23 03:21:58;;;;;;;5.18;2.47;;;;;;;;;;4888983;29;20047;-43
2023/12/23 03:24:25;;;;;;;4.70;2.10;;;;;;;;;;4909887;29;20028;-49
2023/12/23 03:26:52;;;;;;;6.25;2.70;;;;;;;;;;4911073;29;20037;-50
2023/12/23 03:29:19;;;;;;;2.45;1.55;;;;;;;;;;4906526;29;20479;-47
2023/12/23 03:31:46;;;;;;;3.50;1.63;;;;;;;;;;4905325;29;20032;-49
2023/12/23 03:34:13;;;;;;;3.70;1.70;;;;;;;;;;4905943;29;20024;-52
2023/12/23 03:36:40;;;;;;;4.03;1.55;;;;;;;;;;4903867;29;20306;-50
2023/12/23 03:39:07;;;;;;;3.53;1.65;;;;;;;;;;4904875;29;20111;-53
2023/12/23 03:41:34;;;;;;;3.45;1.63;;;;;;;;;;4905649;29;20126;-49
2023/12/23 03:44:01;;;;;;;2.30;1.58;;;;;;;;;;4905513;29;20031;-48
2023/12/23 03:46:28;;;;;;;4.45;1.80;;;;;;;;;;4908459;29;20395;-46
2023/12/23 03:48:56;;;;;;;4.10;1.60;;;;;;;;;;4897275;29;20067;-45
2023/12/23 03:51:23;;;;;;;5.30;1.67;;;;;;;;;;4913750;29;20123;-46
2023/12/23 03:53:50;;;;;;;2.85;1.58;;;;;;;;;;4913930;29;20051;-46
2023/12/23 03:56:17;;;;;;;3.15;1.75;;;;;;;;;;4913380;29;20601;-45
2023/12/23 03:58:44;;;;;;;4.85;2.50;;;;;;;;;;4896015;29;20028;-46
2023/12/23 04:01:11;;;;;;;5.30;2.83;;;;;;;;;;4895952;29;20072;-47
2023/12/23 04:03:38;;;;;;;6.38;3.33;;;;;;;;;;4896152;29;20040;-50
2023/12/23 04:06:05;;;;;;;6.38;3.65;;;;;;;;;;4909638;29;20132;-47
2023/12/23 04:08:32;;;;;;;5.43;3.00;;;;;;;;;;4905989;29;20035;-48
2023/12/23 04:10:59;;;;;;;5.57;2.67;;;;;;;;;;4903795;29;20045;-46
2023/12/23 04:13:26;;;;;;;5.07;2.80;;;;;;;;;;4905027;29;20036;-48
2023/12/23 04:15:53;;;;;;;5.47;2.92;;;;;;;;;;4905468;29;20048;-46
2023/12/23 04:18:20;;;;;;;7.00;2.95;;;;;;;;;;4890195;29;20040;-45
2023/12/23 04:20:47;;;;;;;4.80;2.97;;;;;;;;;;4908534;29;20032;-46
2023/12/23 04:23:14;;;;;;;4.45;2.35;;;;;;;;;;4901753;29;20123;-43
2023/12/23 04:25:42;;;;;;;5.72;2.55;;;;;;;;;;4899498;29;20032;-42
2023/12/23 04:28:10;;;;;;;6.63;2.90;;;;;;;;;;4899362;29;20036;-50
2023/12/23 04:30:37;;;;;;;7.65;2.97;;;;;;;;;;4899538;29;20027;-47
2023/12/23 04:33:04;;;;;;;6.13;2.95;;;;;;;;;;4899249;29;20128;-48
2023/12/23 04:35:31;;;;;;;4.95;2.67;;;;;;;;;;4899402;29;20029;-49
2023/12/23 04:37:58;;;;;;;4.38;2.65;;;;;;;;;;4899260;29;20036;-51
2023/12/23 04:40:25;;;;;;;8.55;3.05;;;;;;;;;;4898997;29;20086;-46
2023/12/23 04:42:53;;;;;;;4.20;2.60;;;;;;;;;;4915837;29;20037;-44
2023/12/23 04:45:20;;;;;;;7.18;3.47;;;;;;;;;;4917544;29;20056;-52
2023/12/23 04:47:47;;;;;;;5.63;3.47;;;;;;;;;;4918043;29;20032;-48
2023/12/23 04:50:14;;;;;;;5.53;2.92;;;;;;;;;;4917864;29;20024;-49
2023/12/23 04:52:41;;;;;;;3.88;2.22;;;;;;;;;;4917789;29;20123;-46
2023/12/23 04:55:09;;;;;;;4.88;2.50;;;;;;;;;;4917639;29;20062;-46
2023/12/23 04:57:36;;;;;;;4.97;2.33;;;;;;;;;;4917755;29;20040;-47
2023/12/23 05:00:05;;;;;;;4.50;2.10;;;;;;;;;;4917793;29;20036;-42
2023/12/23 05:02:35;;;;;;;3.88;1.75;;;;;;;;;;4917761;29;20055;-44
2023/12/23 05:05:03;;;;;;;2.72;1.85;;;;;;;;;;4917456;29;20024;-41
2023/12/23 05:07:30;;;;;;;5.22;2.20;;;;;;;;;;4917498;29;20244;-43
2023/12/23 05:09:57;;;;;;;4.65;1.65;;;;;;;;;;4917384;29;20048;-42
2023/12/23 05:12:24;;;;;;;3.45;1.77;;;;;;;;;;4918117;29;20069;-44
2023/12/23 05:14:51;;;;;;;4.65;2.60;;;;;;;;;;4900689;29;20530;-47
2023/12/23 05:17:18;;;;;;;4.38;2.60;;;;;;;;;;4917402;29;20435;-53
2023/12/23 05:19:47;;;;;;;4.55;2.20;;;;;;;;;;4917540;29;20035;-51
2023/12/23 05:22:14;;;;;;;4.30;2.42;;;;;;;;;;4917242;29;20036;-50
2023/12/23 05:24:42;;;;;;;4.47;2.00;;;;;;;;;;4917283;29;20513;-47
2023/12/23 05:27:11;;;;;;;3.08;1.95;;;;;;;;;;4917036;29;20040;-49
2023/12/23 05:29:38;;;;;;;4.22;1.92;;;;;;;;;;4916262;29;20032;-47
2023/12/23 05:32:05;;;;;;;4.28;2.20;;;;;;;;;;4917123;29;20494;-47
2023/12/23 05:34:32;;;;;;;3.42;1.75;;;;;;;;;;4917166;29;20453;-48
2023/12/23 05:36:59;;;;;;;3.65;1.88;;;;;;;;;;4917156;29;20059;-50
2023/12/23 05:39:26;;;;;;;2.85;1.90;;;;;;;;;;4916728;29;20052;-48
2023/12/23 05:41:53;;;;;;;4.40;2.28;;;;;;;;;;4916814;29;20497;-47
2023/12/23 05:44:20;;;;;;;5.03;2.15;;;;;;;;;;4917039;29;20036;-47
2023/12/23 05:46:47;;;;;;;5.35;2.22;;;;;;;;;;4916952;29;20028;-48
2023/12/23 05:49:14;;;;;;;4.35;2.20;;;;;;;;;;4916748;29;20060;-47
2023/12/23 05:51:41;;;;;;;2.30;1.60;;;;;;;;;;4916576;29;20039;-46
2023/12/23 05:54:08;;;;;;;4.05;1.70;;;;;;;;;;4916742;29;20024;-45
2023/12/23 05:56:35;;;;;;;3.25;1.67;;;;;;;;;;4921391;29;20083;-45
2023/12/23 05:59:01;;;;;;;4.68;1.70;;;;;;;;;;4935657;29;20028;-46
2023/12/23 06:01:28;;;;;;;5.25;2.10;;;;;;;;;;4927662;29;20044;-47
2023/12/23 06:03:55;;;;;;;5.40;1.95;;;;;;;;;;4916732;29;20107;-46
2023/12/23 06:06:22;;;;;;;5.57;1.98;;;;;;;;;;4916428;29;20028;-46
2023/12/23 06:08:49;;;;;;;2.45;1.65;;;;;;;;;;4916479;29;20514;-46
2023/12/23 06:11:16;;;;;;;4.57;1.88;;;;;;;;;;4916284;29;20471;-46
2023/12/23 06:13:43;;;;;;;6.32;1.58;;;;;;;;;;4916486;29;20425;-47
2023/12/23 06:16:10;;;;;;;7.07;1.60;;;;;;;;;;4916295;29;20051;-45
2023/12/23 06:18:37;;;;;;;4.88;1.50;;;;;;;;;;4916189;29;20052;-46
2023/12/23 06:21:04;;;;;;;3.15;1.60;;;;;;;;;;4916277;29;20032;-46
2023/12/23 06:23:31;;;;;;;2.90;1.63;;;;;;;;;;4916334;29;20796;-46
2023/12/23 06:25:58;;;;;;;4.05;1.60;;;;;;;;;;4916201;29;20843;-46
2023/12/23 06:28:25;;;;;;;3.63;1.40;;;;;;;;;;4915896;29;20028;-48
2023/12/23 06:30:52;;;;;;;2.35;1.30;;;;;;;;;;4916263;29;20035;-45
2023/12/23 06:33:19;;;;;;;3.10;1.42;;;;;;;;;;4916050;29;20040;-45
2023/12/23 06:35:46;;;;;;;5.25;1.52;;;;;;;;;;4915875;29;20032;-46
2023/12/23 06:38:16;;;;;;;5.25;1.48;;;;;;;;;;4915909;29;20039;-46
2023/12/23 06:40:43;;;;;;;6.90;1.60;;;;;;;;;;4915597;29;20084;-47
2023/12/23 06:43:10;;;;;;;2.92;1.33;;;;;;;;;;4915830;29;20079;-46
2023/12/23 06:45:37;;;;;;;2.08;1.25;;;;;;;;;;4915840;29;20067;-45
2023/12/23 06:48:04;;;;;;;2.60;1.52;;;;;;;;;;4915781;29;20052;-46
2023/12/23 06:50:31;;;;;;;1.90;1.10;;;;;;;;;;4915777;29;20024;-46
2023/12/23 06:52:58;;;;;;;3.05;1.50;;;;;;;;;;4915866;29;20050;-45
2023/12/23 06:55:25;;;;;;;2.33;1.25;;;;;;;;;;4915874;29;20028;-46
2023/12/23 06:57:54;;;;;;;1.90;1.25;;;;;;;;;;4915576;29;20046;-46
2023/12/23 07:00:21;;;;;;;3.97;1.50;;;;;;;;;;4915687;29;20036;-46
2023/12/23 07:02:50;;;;;;;2.80;1.30;;;;;;;;;;4915218;29;20036;-46
2023/12/23 07:05:18;;;;;;;2.80;1.30;;;;;;;;;;4915581;29;20044;-45
2023/12/23 07:07:45;;;;;;;2.03;1.13;;;;;;;;;;4933085;29;20095;-46
2023/12/23 07:10:14;;;;;;;2.00;1.30;;;;;;;;;;4934367;29;20110;-46
2023/12/23 07:12:41;;;;;;;2.28;1.40;;;;;;;;;;4934262;29;20080;-46
2023/12/23 07:15:08;;;;;;;2.88;1.40;;;;;;;;;;4934605;29;20394;-47
2023/12/23 07:17:35;;;;;;;3.17;1.55;;;;;;;;;;4934532;29;20027;-45
2023/12/23 07:20:03;;;;;;;4.22;1.40;;;;;;;;;;4934521;29;20390;-46
2023/12/23 07:22:30;;;;;;;2.28;1.20;;;;;;;;;;4933904;29;20056;-46
2023/12/23 07:24:57;;;;;;;3.63;1.52;;;;;;;;;;4934596;29;20035;-46
2023/12/23 07:27:24;;;;;;;4.28;1.38;;;;;;;;;;4934361;29;20031;-45
2023/12/23 07:29:51;;;;;;;3.70;1.13;;;;;;;;;;4934405;29;20028;-46
2023/12/23 07:32:18;;;;;;;2.40;1.30;;;;;;;;;;4934401;29;20036;-46
2023/12/23 07:34:45;;;;;;;4.07;1.50;;;;;;;;;;4934168;29;20051;-46
2023/12/23 07:37:12;;;;;;;1.60;1.05;;;;;;;;;;4934360;29;20036;-46
2023/12/23 07:39:39;;;;;;;2.60;1.20;;;;;;;;;;4934394;29;20032;-45
2023/12/23 07:42:06;;;;;;;4.60;1.05;;;;;;;;;;4934072;29;20498;-46
2023/12/23 07:44:36;;;;;;;2.97;1.40;;;;;;;;;;4934212;29;20501;-45
2023/12/23 07:47:04;;;;;;;2.10;1.30;;;;;;;;;;4934104;29;20051;-45
2023/12/23 07:49:34;;;;;;;2.25;1.25;;;;;;;;;;4934112;29;20115;-45
2023/12/23 07:52:01;;;;;;;1.58;1.25;;;;;;;;;;4935951;29;20055;-46
2023/12/23 07:54:28;;;;;;;2.45;1.20;;;;;;;;;;4938075;29;20083;-46
2023/12/23 07:56:55;;;;;;;3.20;1.23;;;;;;;;;;4937721;29;20024;-46
2023/12/23 07:59:22;;;;;;;2.63;1.33;;;;;;;;;;4937858;29;20023;-47
2023/12/23 08:01:49;;;;;;;2.22;1.30;;;;;;;;;;4920421;29;20067;-46
2023/12/23 08:04:16;;;;;;;2.53;1.08;;;;;;;;;;4937768;29;20111;-46
2023/12/23 08:06:47;;;;;;;1.25;0.93;;;;;;;;;;4937639;29;20482;-48
2023/12/23 08:09:17;;;;;;;2.38;1.17;;;;;;;;;;4937596;29;20122;-46
2023/12/23 08:11:44;;;;;;;2.40;1.00;;;;;;;;;;4937182;29;20442;-46
2023/12/23 08:14:11;;;;;;;1.52;1.02;;;;;;;;;;4937602;29;20106;-46
2023/12/23 08:16:38;;;;;;;2.58;0.93;;;;;;;;;;4937595;29;20023;-45
2023/12/23 08:19:05;;;;;;;1.13;0.82;;;;;;;;;;4937437;29;20123;-46
2023/12/23 08:21:32;;;;;;;1.45;1.00;;;;;;;;;;4937566;29;20024;-46
2023/12/23 08:24:03;;;;;;;3.30;1.30;;;;;;;;;;4937380;29;20061;-46
2023/12/23 08:26:30;;;;;;;1.98;1.13;;;;;;;;;;4937474;29;20100;-46
2023/12/23 08:28:57;;;;;;;2.13;0.98;;;;;;;;;;4937463;29;20020;-45
2023/12/23 08:31:24;;;;;;;1.05;0.77;;;;;;;;;;4937308;29;20035;-46
2023/12/23 08:33:51;;;;;;;3.88;0.90;;;;;;;;;;4937310;29;20028;-46
2023/12/23 08:36:18;;;;;;;4.18;1.20;;;;;;;;;;4937359;29;20055;-46
2023/12/23 08:38:45;;;;;;;1.25;0.80;;;;;;;;;;4937150;29;20036;-47
2023/12/23 08:41:12;;;;;;;3.55;0.90;;;;;;;;;;4937194;29;20032;-45
2023/12/23 08:43:39;;;;;;;1.27;0.90;;;;;;;;;;4937225;29;20050;-46
2023/12/23 08:46:06;;;;;;;3.08;0.85;;;;;;;;;;4936900;29;20030;-46
2023/12/23 08:48:33;;;;;;;1.40;0.80;;;;;;;;;;4936973;29;20102;-47
2023/12/23 08:51:00;;;;;;;2.53;1.00;;;;;;;;;;4937058;29;20035;-46
2023/12/23 08:53:28;;;;;;;2.15;0.90;;;;;;;;;;4937028;29;20027;-46
2023/12/23 08:55:55;;;;;;;2.60;0.90;;;;;;;;;;4936807;29;20040;-45
2023/12/23 08:58:22;;;;;;;2.72;0.98;;;;;;;;;;4936775;29;20103;-46
2023/12/23 09:00:49;;;;;;;2.92;0.77;;;;;;;;;;4930486;29;20044;-45
2023/12/23 09:03:16;;;;;;;4.35;1.05;;;;;;;;;;4916341;29;20036;-46
2023/12/23 09:05:43;;;;;;;2.25;1.10;;;;;;;;;;4917635;29;20055;-45
2023/12/23 09:08:13;;;;;;;2.65;0.80;;;;;;;;;;4917320;29;20447;-46
2023/12/23 09:10:40;;;;;;;2.25;0.90;;;;;;;;;;4917364;29;20494;-46
2023/12/23 09:13:08;;;;;;;4.90;1.13;;;;;;;;;;4909933;29;20036;-56
2023/12/23 09:15:35;;;;;;;5.35;1.33;;;;;;;;;;4913145;29;20084;-55
2023/12/23 09:18:03;;;;;;;7.55;0.90;;;;;;;;;;4916565;29;20032;-52
2023/12/23 09:20:31;;;;;;;6.65;1.15;;;;;;;;;;4917029;29;20042;-55
2023/12/23 09:22:58;;;;;;;11.63;1.35;;;;;;;;;;4910905;29;20099;-44
2023/12/23 09:25:25;;;;;;;4.80;1.00;;;;;;;;;;4912200;29;20045;-48
2023/12/23 09:27:52;;;;;;;21.02;2.03;;;;;;;;;;4913189;29;20427;-43
2023/12/23 09:30:19;;;;;;;11.60;2.00;;;;;;;;;;4916092;29;20540;-42
2023/12/23 09:32:46;;;;;;;12.20;1.75;;;;;;;;;;4915775;29;20036;-44
2023/12/23 09:35:13;;;;;;;11.82;1.63;;;;;;;;;;4914114;29;20039;-44
2023/12/23 09:37:40;;;;;;;7.00;1.40;;;;;;;;;;4913761;29;20051;-43
2023/12/23 09:40:07;;;;;;;23.67;2.95;;;;;;;;;;4914895;29;20036;-43
2023/12/23 09:42:34;;;;;;;9.45;1.70;;;;;;;;;;4916612;29;20526;-42
2023/12/23 09:45:01;;;;;;;7.65;1.38;;;;;;;;;;4899424;29;20409;-42
2023/12/23 09:47:28;;;;;;;8.73;1.35;;;;;;;;;;4915328;29;20060;-42
2023/12/23 09:49:56;;;;;;;8.07;1.27;;;;;;;;;;4913524;29;20035;-47
2023/12/23 09:52:24;;;;;;;3.47;0.90;;;;;;;;;;4915451;29;20040;-42
2023/12/23 09:54:52;;;;;;;34.53;2.40;;;;;;;;;;4915698;29;20091;-43
2023/12/23 09:57:19;;;;;;;8.75;1.65;;;;;;;;;;4901291;29;20040;-44
2023/12/23 09:59:51;;;;;;;9.35;1.25;;;;;;;;;;4916660;29;20515;-43
2023/12/23 10:02:18;;;;;;;4.38;1.10;;;;;;;;;;4916344;29;20071;-44
2023/12/23 10:04:44;;;;;;;9.48;1.40;;;;;;;;;;4916174;29;20032;-44
2023/12/23 10:07:11;;;;;;;8.88;0.90;;;;;;;;;;4914658;29;20471;-43
2023/12/23 10:09:38;;;;;;;5.13;1.20;;;;;;;;;;4916308;29;20049;-44
2023/12/23 10:12:05;;;;;;;4.55;1.10;;;;;;;;;;4916379;29;20059;-44
2023/12/23 10:14:32;;;;;;;4.82;0.98;;;;;;;;;;4916245;29;20024;-44
2023/12/23 10:16:59;;;;;;;4.60;0.90;;;;;;;;;;4916538;29;20028;-44
2023/12/23 10:19:26;;;;;;;6.68;1.20;;;;;;;;;;4916534;29;20035;-43
2023/12/23 10:21:54;;;;;;;3.35;0.88;;;;;;;;;;4916395;29;20123;-44
2023/12/23 10:24:20;;;;;;;3.75;0.95;;;;;;;;;;4916331;29;20506;-43
2023/12/23 10:26:47;;;;;;;4.10;1.05;;;;;;;;;;4916205;29;20028;-43
2023/12/23 10:29:16;;;;;;;6.13;1.08;;;;;;;;;;4916243;29;20072;-44
2023/12/23 10:31:45;;;;;;;2.60;0.98;;;;;;;;;;4916255;29;20032;-45
2023/12/23 10:34:12;;;;;;;2.00;0.80;;;;;;;;;;4916361;29;20020;-44
2023/12/23 10:36:42;;;;;;;3.03;0.80;;;;;;;;;;4899144;29;20036;-43
2023/12/23 10:39:35;;;;;;;4.72;0.90;;;;;;;;;;4916243;29;20080;-44
2023/12/23 10:42:05;;;;;;;7.93;1.48;;;;;;;;;;4912940;29;20047;-43
2023/12/23 10:44:32;;;;;;;5.95;0.98;;;;;;;;;;4916047;29;20051;-43
2023/12/23 10:47:00;;;;;;;2.55;0.80;;;;;;;;;;4916045;29;20035;-43
2023/12/23 10:49:29;;;;;;;2.92;0.90;;;;;;;;;;4915998;29;20115;-43
2023/12/23 10:51:57;;;;;;;2.55;1.08;;;;;;;;;;4915839;29;20447;-44
2023/12/23 10:54:27;;;;;;;3.20;0.90;;;;;;;;;;4915932;29;20094;-43
2023/12/23 10:56:57;;;;;;;6.00;1.08;;;;;;;;;;4915606;29;20052;-43
2023/12/23 10:59:24;;;;;;;3.50;1.15;;;;;;;;;;4915894;29;20149;-43
2023/12/23 11:01:51;;;;;;;2.38;1.05;;;;;;;;;;4915772;29;20042;-44
2023/12/23 11:04:19;;;;;;;1.73;0.70;;;;;;;;;;4915786;29;20115;-44
2023/12/23 11:06:47;;;;;;;2.67;0.90;;;;;;;;;;4915742;29;20444;-44
2023/12/23 11:09:16;;;;;;;2.88;0.82;;;;;;;;;;4915824;29;20482;-43
2023/12/23 11:11:43;;;;;;;3.13;1.00;;;;;;;;;;4898483;29;20071;-43
2023/12/23 11:14:10;;;;;;;5.13;1.08;;;;;;;;;;4915694;29;20032;-44
2023/12/23 11:16:42;;;;;;;2.03;1.10;;;;;;;;;;4915423;29;20395;-43
2023/12/23 11:19:09;;;;;;;2.00;0.88;;;;;;;;;;4915480;29;20520;-43
2023/12/23 11:21:36;;;;;;;1.85;0.80;;;;;;;;;;4915498;29;20040;-44
2023/12/23 11:24:03;;;;;;;2.70;0.82;;;;;;;;;;4915604;29;20115;-44
2023/12/23 11:26:42;;;;;;;2.05;0.90;;;;;;;;;;4913772;29;20076;-43
2023/12/23 11:29:10;;;;;;;4.70;1.00;;;;;;;;;;4915295;29;20036;-44
2023/12/23 11:31:37;;;;;;;2.35;1.00;;;;;;;;;;4915492;29;20395;-43
2023/12/23 11:34:17;;;;;;;5.43;1.20;;;;;;;;;;4915414;29;20046;-43
2023/12/23 11:36:44;;;;;;;2.40;1.00;;;;;;;;;;4915183;29;20112;-44
2023/12/23 11:39:12;;;;;;;4.55;1.00;;;;;;;;;;4915361;29;20555;-43
2023/12/23 11:41:42;;;;;;;2.38;0.80;;;;;;;;;;4915096;29;20036;-43
2023/12/23 11:44:11;;;;;;;2.10;0.88;;;;;;;;;;4914765;29;20091;-44
2023/12/23 11:46:40;;;;;;;2.70;0.80;;;;;;;;;;4914296;29;20051;-44
2023/12/23 11:49:09;;;;;;;2.38;0.82;;;;;;;;;;4915134;29;20036;-43
2023/12/23 11:51:37;;;;;;;1.92;0.90;;;;;;;;;;4898252;29;20064;-44
2023/12/23 11:54:04;;;;;;;2.53;0.80;;;;;;;;;;4915284;29;20020;-43
2023/12/23 11:56:31;;;;;;;3.33;0.80;;;;;;;;;;4915256;29;20115;-43
2023/12/23 11:59:01;;;;;;;2.05;0.95;;;;;;;;;;4915310;29;20024;-44
2023/12/23 12:01:28;;;;;;;1.65;0.73;;;;;;;;;;4914999;29;20072;-43
2023/12/23 12:03:55;;;;;;;6.18;0.85;;;;;;;;;;4915134;29;20059;-43
2023/12/23 12:06:24;;;;;;;5.40;0.90;;;;;;;;;;4914777;29;20047;-46
2023/12/23 12:08:51;;;;;;;3.30;0.70;;;;;;;;;;4914607;29;20059;-43
2023/12/23 12:11:18;;;;;;;2.03;0.80;;;;;;;;;;4914379;29;20064;-43
2023/12/23 12:13:46;;;;;;;3.60;0.80;;;;;;;;;;4914995;29;20020;-43
2023/12/23 12:16:13;;;;;;;2.92;0.90;;;;;;;;;;4914878;29;20506;-43
2023/12/23 12:18:43;;;;;;;3.63;0.75;;;;;;;;;;4915078;29;20501;-43
2023/12/23 12:21:10;;;;;;;4.22;0.82;;;;;;;;;;4914693;29;20387;-43
2023/12/23 12:23:38;;;;;;;1.95;0.80;;;;;;;;;;4911875;29;20038;-44
2023/12/23 12:26:05;;;;;;;1.48;0.70;;;;;;;;;;4914382;29;20031;-43
2023/12/23 12:28:32;;;;;;;3.38;0.75;;;;;;;;;;4914264;29;20066;-46
2023/12/23 12:31:09;;;;;;;6.20;0.82;;;;;;;;;;4914475;29;20111;-44
2023/12/23 12:33:37;;;;;;;1.65;0.60;;;;;;;;;;4914330;29;20103;-45
2023/12/23 12:36:04;;;;;;;3.53;0.85;;;;;;;;;;4914389;29;20032;-44
2023/12/23 12:38:32;;;;;;;1.35;0.80;;;;;;;;;;4916712;29;20032;-43
2023/12/23 12:40:59;;;;;;;1.42;0.80;;;;;;;;;;4917998;29;20070;-44
2023/12/23 12:43:31;;;;;;;4.38;0.73;;;;;;;;;;4901500;29;20068;-44
2023/12/23 12:45:58;;;;;;;5.22;0.65;;;;;;;;;;4917529;29;20066;-44
2023/12/23 12:48:27;;;;;;;1.58;0.52;;;;;;;;;;4917538;29;20080;-44
2023/12/23 12:50:55;;;;;;;2.78;0.90;;;;;;;;;;4918027;29;20031;-43
2023/12/23 12:53:22;;;;;;;2.85;1.10;;;;;;;;;;4918031;29;20024;-44
2023/12/23 12:55:49;;;;;;;4.50;1.00;;;;;;;;;;4918055;29;20032;-44
2023/12/23 12:58:17;;;;;;;3.55;0.77;;;;;;;;;;4917348;29;20153;-44
2023/12/23 13:00:44;;;;;;;3.40;0.95;;;;;;;;;;4917948;29;20036;-43
2023/12/23 13:03:11;;;;;;;9.60;1.45;;;;;;;;;;4917903;29;20040;-44
2023/12/23 13:05:38;;;;;;;13.07;1.67;;;;;;;;;;4917851;29;20038;-43
2023/12/23 13:08:05;;;;;;;12.52;1.45;;;;;;;;;;4917816;29;20028;-44
2023/12/23 13:10:32;;;;;;;10.70;1.67;;;;;;;;;;4917612;29;20056;-44
2023/12/23 13:13:00;;;;;;;10.05;1.45;;;;;;;;;;4917795;29;20135;-44
2023/12/23 13:15:27;;;;;;;12.65;1.70;;;;;;;;;;4917614;29;20501;-44
2023/12/23 13:17:54;;;;;;;12.45;1.75;;;;;;;;;;4917621;29;20032;-43
2023/12/23 13:20:21;;;;;;;9.25;1.60;;;;;;;;;;4917598;29;20084;-44
2023/12/23 13:22:48;;;;;;;9.60;1.40;;;;;;;;;;4917535;29;20032;-44
2023/12/23 13:25:15;;;;;;;8.50;1.50;;;;;;;;;;4917513;29;20427;-43
2023/12/23 13:27:42;;;;;;;4.35;1.27;;;;;;;;;;4917451;29;20032;-44
2023/12/23 13:30:10;;;;;;;7.88;1.75;;;;;;;;;;4917773;29;20080;-44
2023/12/23 13:32:37;;;;;;;6.47;1.05;;;;;;;;;;4917477;29;20044;-44
2023/12/23 13:35:04;;;;;;;8.75;1.55;;;;;;;;;;4917306;29;20032;-44
2023/12/23 13:37:31;;;;;;;4.18;1.33;;;;;;;;;;4917224;29;20092;-43
2023/12/23 13:39:58;;;;;;;6.47;1.23;;;;;;;;;;4917289;29;20032;-44
2023/12/23 13:42:25;;;;;;;3.65;1.08;;;;;;;;;;4917140;29;20076;-44
2023/12/23 13:44:52;;;;;;;6.68;1.10;;;;;;;;;;4917077;29;20032;-44
2023/12/23 13:47:19;;;;;;;4.82;1.00;;;;;;;;;;4916979;29;20033;-44
2023/12/23 13:49:46;;;;;;;6.32;0.90;;;;;;;;;;4916204;29;20161;-44
2023/12/23 13:52:13;;;;;;;3.45;0.77;;;;;;;;;;4917061;29;20032;-44
2023/12/23 13:54:40;;;;;;;4.20;0.90;;;;;;;;;;4917027;29;20036;-44
2023/12/23 13:57:08;;;;;;;4.28;0.93;;;;;;;;;;4916862;29;20024;-44
2023/12/23 13:59:35;;;;;;;3.15;0.95;;;;;;;;;;4916819;29;20040;-43
2023/12/23 14:02:04;;;;;;;8.32;1.17;;;;;;;;;;4916733;29;20032;-44
2023/12/23 14:04:31;;;;;;;2.97;0.80;;;;;;;;;;4916701;29;20107;-44
2023/12/23 14:06:58;;;;;;;3.13;0.80;;;;;;;;;;4916755;29;20035;-44
2023/12/23 14:09:25;;;;;;;2.67;0.70;;;;;;;;;;4916760;29;20546;-44
2023/12/23 14:11:52;;;;;;;2.20;0.85;;;;;;;;;;4916525;29;20052;-44
2023/12/23 14:14:19;;;;;;;4.07;0.88;;;;;;;;;;4916739;29;20083;-44
2023/12/23 14:16:46;;;;;;;4.18;0.63;;;;;;;;;;4916518;29;20063;-44
2023/12/23 14:19:13;;;;;;;2.80;0.82;;;;;;;;;;4916639;29;20095;-44
2023/12/23 14:21:40;;;;;;;1.42;0.70;;;;;;;;;;4916549;29;20028;-44
2023/12/23 14:24:07;;;;;;;4.78;0.90;;;;;;;;;;4916530;29;20024;-44
2023/12/23 14:26:34;;;;;;;3.92;0.90;;;;;;;;;;4916347;29;20020;-44
2023/12/23 14:29:02;;;;;;;3.35;0.80;;;;;;;;;;4916482;29;20123;-44
2023/12/23 14:31:29;;;;;;;2.72;0.70;;;;;;;;;;4916366;29;20032;-43
2023/12/23 14:33:56;;;;;;;4.82;0.75;;;;;;;;;;4916360;29;20036;-45
2023/12/23 14:36:23;;;;;;;2.05;0.70;;;;;;;;;;4916118;29;20047;-44
2023/12/23 14:38:50;;;;;;;2.05;0.50;;;;;;;;;;4916254;29;20056;-44